Time;durP1;ratioP1;P1;durP2;ratioP2;P2;SDS_P1;SDS_P2;PMS_P1;PMS_P2;Temp;Humidity;BMP_temperature;BMP_pressure;BME280_temperature;BME280_humidity;BME280_pressure;Samples;Min_cycle;Max_cycle;Signal;HPM_P1;HPM_P2
2023/01/02 00:00:00;;;;;;;;;;;10.00;99.90;;;;;;4969848;28;19968;-80
2023/01/02 00:02:26;;;;;;;;;;;10.10;99.90;;;;;;4973352;28;20008;-80
2023/01/02 00:04:52;;;;;;;;;;;10.10;99.90;;;;;;4971539;28;19967;-79
2023/01/02 00:07:18;;;;;;;;;;;10.10;99.90;;;;;;4973403;28;19925;-79
2023/01/02 00:09:43;;;;;;;;;;;10.10;99.90;;;;;;4974341;28;19926;-80
2023/01/02 00:12:09;;;;;;;;;;;10.50;99.90;;;;;;4972577;28;19925;-79
2023/01/02 00:14:34;;;;;;;;;;;10.20;99.90;;;;;;4957616;28;19921;-80
2023/01/02 00:17:00;;;;;;;;;;;10.20;99.90;;;;;;4990497;28;19922;-79
2023/01/02 00:19:26;;;;;;;;;;;10.20;99.90;;;;;;4988778;28;19925;-79
2023/01/02 00:21:51;;;;;;;;;;;10.30;99.90;;;;;;4989151;28;20376;-80
2023/01/02 00:24:17;;;;;;;;;;;10.30;99.90;;;;;;4991423;28;19964;-79
2023/01/02 00:26:42;;;;;;;;;;;10.20;99.90;;;;;;4973690;28;19926;-80
2023/01/02 00:29:08;;;;;;;;;;;10.50;99.90;;;;;;4989051;28;19926;-80
2023/01/02 00:31:33;;;;;;;;;;;10.30;99.90;;;;;;4973510;28;19922;-80
2023/01/02 00:33:59;;;;;;;;;;;10.30;99.90;;;;;;4973088;28;19937;-80
2023/01/02 00:36:26;;;;;;;;;;;10.30;99.90;;;;;;4965358;28;19925;-80
2023/01/02 00:38:55;;;;;;;;;;;10.30;99.90;;;;;;4973107;28;19918;-80
2023/01/02 00:41:21;;;;;;;;;;;10.30;99.90;;;;;;4971912;28;20369;-80
2023/01/02 00:43:46;;;;;;;;;;;10.30;99.90;;;;;;4990756;28;19929;-80
2023/01/02 00:46:12;;;;;;;;;;;10.50;99.90;;;;;;4990658;28;19922;-80
2023/01/02 00:48:37;;;;;;;;;;;10.30;99.90;;;;;;4990774;28;19922;-80
2023/01/02 00:51:03;;;;;;;;;;;10.30;99.90;;;;;;4972815;28;19953;-80
2023/01/02 00:53:28;;;;;;;;;;;10.40;99.90;;;;;;4991220;28;20007;-80
2023/01/02 00:55:54;;;;;;;;;;;10.50;99.90;;;;;;4973632;28;19918;-80
2023/01/02 00:58:19;;;;;;;;;;;10.30;99.90;;;;;;4973404;28;19943;-80
2023/01/02 01:00:45;;;;;;;;;;;10.30;99.90;;;;;;4989547;28;19925;-80
2023/01/02 01:03:10;;;;;;;;;;;10.30;99.90;;;;;;4989582;28;19918;-80
2023/01/02 01:05:37;;;;;;;;;;;10.40;99.90;;;;;;4990269;28;19925;-80
2023/01/02 01:08:03;;;;;;;;;;;10.40;99.90;;;;;;4972681;28;20011;-80
2023/01/02 01:10:28;;;;;;;;;;;10.40;99.90;;;;;;4972435;28;19969;-80
2023/01/02 01:12:54;;;;;;;;;;;10.40;99.90;;;;;;4986680;28;19921;-80
2023/01/02 01:15:19;;;;;;;;;;;10.40;99.90;;;;;;4990499;28;20485;-80
2023/01/02 01:17:45;;;;;;;;;;;10.40;99.90;;;;;;4971898;28;19925;-80
2023/01/02 01:20:11;;;;;;;;;;;10.40;99.90;;;;;;4985162;28;19922;-80
2023/01/02 01:22:37;;;;;;;;;;;10.60;99.90;;;;;;4970638;28;19922;-80
2023/01/02 01:25:03;;;;;;;;;;;10.40;99.90;;;;;;4990668;28;19918;-80
2023/01/02 01:27:28;;;;;;;;;;;10.40;99.90;;;;;;4972662;28;20071;-80
2023/01/02 01:29:54;;;;;;;;;;;10.40;99.90;;;;;;4990369;28;19922;-80
2023/01/02 01:32:19;;;;;;;;;;;10.40;99.90;;;;;;4990623;28;20438;-80
2023/01/02 01:34:45;;;;;;;;;;;10.50;99.90;;;;;;4971321;28;19926;-80
2023/01/02 01:37:11;;;;;;;;;;;10.80;99.90;;;;;;4986787;28;19937;-80
2023/01/02 01:39:36;;;;;;;;;;;10.50;99.90;;;;;;4969391;28;19921;-80
2023/01/02 01:42:02;;;;;;;;;;;10.50;99.90;;;;;;4970440;28;19918;-80
2023/01/02 01:44:37;;;;;;;;;;;10.50;99.90;;;;;;4972071;28;19917;-80
2023/01/02 01:47:02;;;;;;;;;;;10.50;99.90;;;;;;4982562;28;20318;-79
2023/01/02 01:49:28;;;;;;;;;;;10.60;99.90;;;;;;4966841;28;20476;-80
2023/01/02 01:51:56;;;;;;;;;;;10.60;99.90;;;;;;4987300;28;19929;-80
2023/01/02 01:54:24;;;;;;;;;;;10.60;99.90;;;;;;4990641;28;19972;-80
2023/01/02 01:56:53;;;;;;;;;;;10.60;99.90;;;;;;4971846;28;19964;-80
2023/01/02 01:59:18;;;;;;;;;;;10.60;99.90;;;;;;4969292;28;19925;-80
2023/01/02 02:01:45;;;;;;;;;;;10.70;99.90;;;;;;4971626;28;19968;-80
2023/01/02 02:04:11;;;;;;;;;;;11.00;99.90;;;;;;4970744;28;19921;-80
2023/01/02 02:06:36;;;;;;;;;;;10.70;99.90;;;;;;4983613;28;19925;-79
2023/01/02 02:09:05;;;;;;;;;;;10.70;99.90;;;;;;4968685;28;19933;-79
2023/01/02 02:11:31;;;;;;;;;;;10.70;99.90;;;;;;4987246;28;19929;-80
2023/01/02 02:13:57;;;;;;;;;;;10.70;99.90;;;;;;4988966;28;19918;-79
2023/01/02 02:16:27;;;;;;;;;;;10.70;99.90;;;;;;4988745;28;19917;-79
2023/01/02 02:19:11;;;;;;;;;;;10.70;99.90;;;;;;4987035;28;19921;-79
2023/01/02 02:21:50;;;;;;;;;;;10.70;99.90;;;;;;4968187;28;19925;-80
2023/01/02 02:24:19;;;;;;;;;;;10.70;99.90;;;;;;4987947;28;19969;-80
2023/01/02 02:27:03;;;;;;;;;;;10.70;99.90;;;;;;4972027;28;20364;-79
2023/01/02 02:29:44;;;;;;;;;;;10.70;99.90;;;;;;4971043;28;19942;-80
2023/01/02 02:32:18;;;;;;;;;;;10.70;99.90;;;;;;4986415;28;19925;-79
2023/01/02 02:35:16;;;;;;;;;;;10.70;99.90;;;;;;4989035;28;19945;-80
2023/01/02 02:37:48;;;;;;;;;;;10.70;99.90;;;;;;4950893;28;19918;-79
2023/01/02 02:40:18;;;;;;;;;;;10.80;99.90;;;;;;4965997;28;20381;-80
2023/01/02 02:42:43;;;;;;;;;;;10.70;99.90;;;;;;4967121;28;19926;-80
2023/01/02 02:45:22;;;;;;;;;;;10.80;99.90;;;;;;4965724;28;19928;-79
2023/01/02 02:47:55;;;;;;;;;;;10.80;99.90;;;;;;4965300;28;19925;-79
2023/01/02 02:50:31;;;;;;;;;;;10.80;99.90;;;;;;4967084;28;20401;-79
2023/01/02 02:52:59;;;;;;;;;;;10.90;99.90;;;;;;4964117;28;19922;-79
2023/01/02 02:55:28;;;;;;;;;;;10.80;99.90;;;;;;4966342;28;19926;-80
2023/01/02 02:57:55;;;;;;;;;;;10.90;99.90;;;;;;4961948;28;19918;-79
2023/01/02 03:00:22;;;;;;;;;;;10.90;99.90;;;;;;4951552;28;19949;-80
2023/01/02 03:02:47;;;;;;;;;;;10.90;99.90;;;;;;4950098;28;20001;-79
2023/01/02 03:05:18;;;;;;;;;;;10.90;99.90;;;;;;4970002;28;20012;-80
2023/01/02 03:07:47;;;;;;;;;;;10.90;99.90;;;;;;4969253;28;19922;-79
2023/01/02 03:10:31;;;;;;;;;;;10.90;99.90;;;;;;4971020;28;19924;-80
2023/01/02 03:13:05;;;;;;;;;;;10.90;99.90;;;;;;4962011;28;20040;-80
2023/01/02 03:15:33;;;;;;;;;;;10.90;99.90;;;;;;4993190;28;19922;-80
2023/01/02 03:18:03;;;;;;;;;;;10.90;99.90;;;;;;4974037;28;19922;-80
2023/01/02 03:20:40;;;;;;;;;;;10.90;99.90;;;;;;4973255;28;19922;-80
2023/01/02 03:23:09;;;;;;;;;;;10.90;99.90;;;;;;4990352;28;19922;-80
2023/01/02 03:25:35;;;;;;;;;;;10.90;99.90;;;;;;4974102;28;19937;-80
2023/01/02 03:28:03;;;;;;;;;;;10.90;99.90;;;;;;4975093;28;19925;-80
2023/01/02 03:30:30;;;;;;;;;;;10.90;99.90;;;;;;4974215;28;19921;-80
2023/01/02 03:33:03;;;;;;;;;;;10.90;99.90;;;;;;4973897;28;19933;-80
2023/01/02 03:35:34;;;;;;;;;;;10.90;99.90;;;;;;4974205;28;19922;-80
2023/01/02 03:38:01;;;;;;;;;;;11.30;99.90;;;;;;4969670;28;19918;-79
2023/01/02 03:40:33;;;;;;;;;;;11.00;99.90;;;;;;4974493;28;19918;-79
2023/01/02 03:43:00;;;;;;;;;;;10.90;99.90;;;;;;4965200;28;19924;-80
2023/01/02 03:45:35;;;;;;;;;;;11.60;99.90;;;;;;4974099;28;19933;-79
2023/01/02 03:48:06;;;;;;;;;;;10.90;99.90;;;;;;4968262;28;19921;-80
2023/01/02 03:50:34;;;;;;;;;;;11.00;99.90;;;;;;4992169;28;20045;-79
2023/01/02 03:53:00;;;;;;;;;;;11.00;99.90;;;;;;4975053;28;19925;-80
2023/01/02 03:55:26;;;;;;;;;;;11.00;99.90;;;;;;4991870;28;20004;-79
2023/01/02 03:58:11;;;;;;;;;;;11.00;99.90;;;;;;4969388;28;19921;-79
2023/01/02 04:00:41;;;;;;;;;;;11.00;99.90;;;;;;4988018;28;19921;-79
2023/01/02 04:03:07;;;;;;;;;;;11.00;99.90;;;;;;4972736;28;19924;-79
2023/01/02 04:05:32;;;;;;;;;;;11.00;99.90;;;;;;4974110;28;19933;-80
2023/01/02 04:08:03;;;;;;;;;;;11.00;99.90;;;;;;4974643;28;20059;-80
2023/01/02 04:10:29;;;;;;;;;;;11.00;99.90;;;;;;4991497;28;20449;-79
2023/01/02 04:12:57;;;;;;;;;;;11.00;99.90;;;;;;4974041;28;19937;-80
2023/01/02 04:15:24;;;;;;;;;;;11.00;99.90;;;;;;4973482;28;19917;-79
2023/01/02 04:17:55;;;;;;;;;;;11.20;99.90;;;;;;4953024;28;19961;-80
2023/01/02 04:20:28;;;;;;;;;;;11.10;99.90;;;;;;4987708;28;19937;-80
2023/01/02 04:22:57;;;;;;;;;;;11.00;99.90;;;;;;4956090;28;19973;-80
2023/01/02 04:25:25;;;;;;;;;;;11.20;99.90;;;;;;4973731;28;19922;-79
2023/01/02 04:27:58;;;;;;;;;;;11.30;99.90;;;;;;4974207;28;19921;-80
2023/01/02 04:30:24;;;;;;;;;;;11.10;99.90;;;;;;4987742;28;19925;-80
2023/01/02 04:32:49;;;;;;;;;;;11.10;99.90;;;;;;4991435;28;20566;-80
2023/01/02 04:35:18;;;;;;;;;;;11.10;99.90;;;;;;4990144;28;20365;-80
2023/01/02 04:37:43;;;;;;;;;;;11.10;99.90;;;;;;4981255;28;19968;-80
2023/01/02 04:40:26;;;;;;;;;;;11.10;99.90;;;;;;4973238;28;19960;-80
2023/01/02 04:42:52;;;;;;;;;;;11.10;99.90;;;;;;4973264;28;20412;-79
2023/01/02 04:45:18;;;;;;;;;;;11.10;99.90;;;;;;4973671;28;20384;-79
2023/01/02 04:47:45;;;;;;;;;;;11.10;99.90;;;;;;4973590;28;20000;-80
2023/01/02 04:50:11;;;;;;;;;;;11.10;99.90;;;;;;4990556;28;19980;-79
2023/01/02 04:52:36;;;;;;;;;;;11.10;99.90;;;;;;4973395;28;19922;-80
2023/01/02 04:55:02;;;;;;;;;;;11.10;99.90;;;;;;4991508;28;19996;-79
2023/01/02 04:57:27;;;;;;;;;;;11.10;99.90;;;;;;4956457;28;19927;-80
2023/01/02 04:59:53;;;;;;;;;;;11.10;99.90;;;;;;4973278;28;19976;-80
2023/01/02 05:02:19;;;;;;;;;;;11.10;99.90;;;;;;4991068;28;19975;-79
2023/01/02 05:04:44;;;;;;;;;;;11.30;99.90;;;;;;4990463;28;20619;-80
2023/01/02 05:07:10;;;;;;;;;;;11.20;99.90;;;;;;4956948;28;20431;-80
2023/01/02 05:09:35;;;;;;;;;;;11.10;99.90;;;;;;4970602;28;19937;-80
2023/01/02 05:12:01;;;;;;;;;;;11.20;99.90;;;;;;4989681;28;20391;-80
2023/01/02 05:14:28;;;;;;;;;;;11.10;99.90;;;;;;4990416;28;19918;-79
2023/01/02 05:16:53;;;;;;;;;;;11.10;99.90;;;;;;4984883;28;20281;-80
2023/01/02 05:19:19;;;;;;;;;;;11.20;99.90;;;;;;4989084;28;19924;-80
2023/01/02 05:24:28;;;;;;;;;;;11.20;99.90;;;;;;4989678;28;19969;-80
2023/01/02 05:26:54;;;;;;;;;;;11.20;99.90;;;;;;4987982;28;19957;-80
2023/01/02 05:29:20;;;;;;;;;;;11.20;99.90;;;;;;4989701;28;19921;-80
2023/01/02 05:31:45;;;;;;;;;;;11.20;99.90;;;;;;4990184;28;20373;-79
2023/01/02 05:34:14;;;;;;;;;;;11.20;99.90;;;;;;4972064;28;19937;-79
2023/01/02 05:36:40;;;;;;;;;;;11.20;99.90;;;;;;4972063;28;19918;-80
2023/01/02 05:39:06;;;;;;;;;;;11.30;99.90;;;;;;4971291;28;19921;-80
2023/01/02 05:41:32;;;;;;;;;;;11.20;99.90;;;;;;4987535;28;19922;-80
2023/01/02 05:43:58;;;;;;;;;;;11.30;99.90;;;;;;4989753;28;20419;-80
2023/01/02 05:46:23;;;;;;;;;;;11.30;99.90;;;;;;4972161;28;19918;-80
2023/01/02 05:48:49;;;;;;;;;;;11.30;99.90;;;;;;4989060;28;19928;-80
2023/01/02 05:51:15;;;;;;;;;;;11.30;99.90;;;;;;4990105;28;19967;-80
2023/01/02 05:53:41;;;;;;;;;;;11.40;99.90;;;;;;4973027;28;20027;-80
2023/01/02 05:56:13;;;;;;;;;;;11.30;99.90;;;;;;4971777;28;19987;-80
2023/01/02 05:58:42;;;;;;;;;;;11.30;99.90;;;;;;4970323;28;20284;-80
2023/01/02 06:01:09;;;;;;;;;;;11.40;99.90;;;;;;4988598;28;20052;-80
2023/01/02 06:03:34;;;;;;;;;;;11.30;99.90;;;;;;4955846;28;20016;-79
2023/01/02 06:06:06;;;;;;;;;;;11.40;99.90;;;;;;4972470;28;20337;-79
2023/01/02 06:08:32;;;;;;;;;;;11.40;99.90;;;;;;4972770;28;19972;-80
2023/01/02 06:10:57;;;;;;;;;;;11.40;99.90;;;;;;4971357;28;19964;-80
2023/01/02 06:13:23;;;;;;;;;;;11.40;99.90;;;;;;4972558;28;20336;-79
2023/01/02 06:15:49;;;;;;;;;;;11.40;99.90;;;;;;4971484;28;20392;-80
2023/01/02 06:18:14;;;;;;;;;;;11.40;99.90;;;;;;4954547;28;19952;-80
2023/01/02 06:20:40;;;;;;;;;;;11.40;99.90;;;;;;4972210;28;19927;-80
2023/01/02 06:23:08;;;;;;;;;;;11.40;99.90;;;;;;4989100;28;19927;-80
2023/01/02 06:25:34;;;;;;;;;;;11.40;99.90;;;;;;4978668;28;19922;-80
2023/01/02 06:27:59;;;;;;;;;;;11.40;99.90;;;;;;4972826;28;19917;-80
2023/01/02 06:30:25;;;;;;;;;;;11.40;99.90;;;;;;4971703;28;20369;-80
2023/01/02 06:32:50;;;;;;;;;;;11.40;99.90;;;;;;4971616;28;19953;-80
2023/01/02 06:35:16;;;;;;;;;;;11.40;99.90;;;;;;4989385;28;19917;-80
2023/01/02 06:37:43;;;;;;;;;;;11.50;99.90;;;;;;4989585;28;20312;-80
2023/01/02 06:40:08;;;;;;;;;;;11.40;99.90;;;;;;4974030;28;20336;-80
2023/01/02 06:42:34;;;;;;;;;;;11.40;99.90;;;;;;4991646;28;19918;-80
2023/01/02 06:44:59;;;;;;;;;;;11.40;99.90;;;;;;4993498;28;19917;-80
2023/01/02 06:47:25;;;;;;;;;;;11.40;99.90;;;;;;4992553;28;20044;-80
2023/01/02 06:49:50;;;;;;;;;;;11.50;99.90;;;;;;4992689;28;20384;-80
2023/01/02 06:52:16;;;;;;;;;;;11.40;99.90;;;;;;4975965;28;20376;-80
2023/01/02 06:54:42;;;;;;;;;;;11.40;99.90;;;;;;4951615;28;19918;-80
2023/01/02 06:57:07;;;;;;;;;;;11.40;99.90;;;;;;4992095;28;19939;-80
2023/01/02 06:59:33;;;;;;;;;;;11.40;99.90;;;;;;4974623;28;19917;-80
2023/01/02 07:01:58;;;;;;;;;;;11.40;99.90;;;;;;4975114;28;19921;-80
2023/01/02 07:04:24;;;;;;;;;;;11.60;99.90;;;;;;4974069;28;19925;-80
2023/01/02 07:06:49;;;;;;;;;;;11.30;99.90;;;;;;4992204;28;19922;-81
2023/01/02 07:09:15;;;;;;;;;;;11.40;99.90;;;;;;4971322;28;20403;-80
2023/01/02 07:11:40;;;;;;;;;;;11.30;99.90;;;;;;4974438;28;20395;-80
2023/01/02 07:14:06;;;;;;;;;;;11.30;99.90;;;;;;4974904;28;19965;-81
2023/01/02 07:16:31;;;;;;;;;;;11.30;99.90;;;;;;4974351;28;20419;-81
2023/01/02 07:18:57;;;;;;;;;;;11.20;99.90;;;;;;4974384;28;20402;-81
2023/01/02 07:21:22;;;;;;;;;;;11.20;99.90;;;;;;4974136;28;20404;-80
2023/01/02 07:23:48;;;;;;;;;;;11.20;99.90;;;;;;4973919;28;20009;-81
2023/01/02 07:26:15;;;;;;;;;;;11.10;99.90;;;;;;4974855;28;20392;-81
2023/01/02 07:28:40;;;;;;;;;;;11.10;99.90;;;;;;4992177;28;19971;-81
2023/01/02 07:31:07;;;;;;;;;;;11.00;99.90;;;;;;4991931;28;19922;-81
2023/01/02 07:33:32;;;;;;;;;;;11.00;99.90;;;;;;4991520;28;20003;-81
2023/01/02 07:36:03;;;;;;;;;;;10.90;99.90;;;;;;4992170;28;19957;-81
2023/01/02 07:38:29;;;;;;;;;;;10.90;99.90;;;;;;4990797;28;20086;-81
2023/01/02 07:40:54;;;;;;;;;;;11.10;99.90;;;;;;4988391;28;20431;-81
2023/01/02 07:43:20;;;;;;;;;;;10.80;99.90;;;;;;4988646;28;20280;-81
2023/01/02 07:45:45;;;;;;;;;;;10.80;99.90;;;;;;4991151;28;20403;-81
2023/01/02 07:48:11;;;;;;;;;;;10.70;99.90;;;;;;4973876;28;19968;-80
2023/01/02 07:50:36;;;;;;;;;;;10.70;99.90;;;;;;4990854;28;19925;-81
2023/01/02 07:53:02;;;;;;;;;;;10.60;99.90;;;;;;4991172;28;19918;-81
2023/01/02 07:55:27;;;;;;;;;;;10.40;99.90;;;;;;4971595;28;19929;-81
2023/01/02 07:57:53;;;;;;;;;;;10.60;99.90;;;;;;4971771;28;20273;-81
2023/01/02 08:00:19;;;;;;;;;;;10.40;99.90;;;;;;4989904;28;19925;-82
2023/01/02 08:02:45;;;;;;;;;;;10.10;99.90;;;;;;4968450;28;19960;-81
2023/01/02 08:05:11;;;;;;;;;;;10.10;99.90;;;;;;4988234;28;19990;-81
2023/01/02 08:07:36;;;;;;;;;;;9.90;99.90;;;;;;4974054;28;20340;-81
2023/01/02 08:10:02;;;;;;;;;;;10.30;99.90;;;;;;4972247;28;19921;-82
2023/01/02 08:12:28;;;;;;;;;;;9.70;99.90;;;;;;4968245;28;19941;-83
2023/01/02 08:14:53;;;;;;;;;;;9.60;99.90;;;;;;4982570;28;19965;-82
2023/01/02 08:17:19;;;;;;;;;;;9.50;99.90;;;;;;4954853;28;19921;-82
2023/01/02 08:19:44;;;;;;;;;;;9.40;99.90;;;;;;4989713;28;19940;-83
2023/01/02 08:22:10;;;;;;;;;;;9.30;99.90;;;;;;4969503;28;19941;-83
2023/01/02 08:24:36;;;;;;;;;;;9.20;99.90;;;;;;4989469;28;19928;-82
2023/01/02 08:27:02;;;;;;;;;;;9.20;99.90;;;;;;4985674;28;20021;-82
2023/01/02 08:29:27;;;;;;;;;;;9.10;99.90;;;;;;4968629;28;19921;-82
2023/01/02 08:31:53;;;;;;;;;;;9.50;99.90;;;;;;4966141;28;19925;-83
2023/01/02 08:34:18;;;;;;;;;;;9.30;99.90;;;;;;4981502;28;21290;-83
2023/01/02 08:36:44;;;;;;;;;;;9.00;99.90;;;;;;4952711;28;19930;-82
2023/01/02 08:39:09;;;;;;;;;;;9.40;99.90;;;;;;4971197;28;19945;-83
2023/01/02 08:41:37;;;;;;;;;;;9.00;99.90;;;;;;4973399;28;19918;-82
2023/01/02 08:44:02;;;;;;;;;;;9.00;99.90;;;;;;4985120;28;19921;-82
2023/01/02 08:46:29;;;;;;;;;;;8.90;99.90;;;;;;4972630;28;19917;-83
2023/01/02 08:48:54;;;;;;;;;;;8.90;99.90;;;;;;4990302;28;19945;-82
2023/01/02 08:51:20;;;;;;;;;;;8.90;99.90;;;;;;4986138;28;19925;-82
2023/01/02 08:53:45;;;;;;;;;;;9.10;99.90;;;;;;4972711;28;19925;-82
2023/01/02 08:56:20;;;;;;;;;;;8.90;99.90;;;;;;4972424;28;20360;-82
2023/01/02 08:58:49;;;;;;;;;;;8.90;99.90;;;;;;4972166;28;19921;-82
2023/01/02 09:01:15;;;;;;;;;;;8.90;99.90;;;;;;4968384;28;19928;-83
2023/01/02 09:03:40;;;;;;;;;;;9.00;99.90;;;;;;4968197;28;19922;-83
2023/01/02 09:06:06;;;;;;;;;;;8.80;99.90;;;;;;4973117;28;19925;-83
2023/01/02 09:08:31;;;;;;;;;;;8.80;99.90;;;;;;4989037;28;19941;-83
2023/01/02 09:10:57;;;;;;;;;;;8.80;99.90;;;;;;4955957;28;20276;-84
2023/01/02 09:13:22;;;;;;;;;;;9.00;99.90;;;;;;4989488;28;20416;-83
2023/01/02 09:15:48;;;;;;;;;;;8.80;99.90;;;;;;4968720;28;19918;-85
2023/01/02 09:18:14;;;;;;;;;;;8.80;99.90;;;;;;4973680;28;20066;-82
2023/01/02 09:20:39;;;;;;;;;;;8.80;99.90;;;;;;4988622;28;19928;-83
2023/01/02 09:23:05;;;;;;;;;;;8.80;99.90;;;;;;4983842;28;19944;-82
2023/01/02 09:25:30;;;;;;;;;;;8.80;99.90;;;;;;4968122;28;19925;-82
2023/01/02 09:27:56;;;;;;;;;;;8.80;99.90;;;;;;4985991;28;20376;-82
2023/01/02 09:30:21;;;;;;;;;;;8.80;99.90;;;;;;4986685;28;19922;-83
2023/01/02 09:32:49;;;;;;;;;;;8.80;99.90;;;;;;4985828;28;19925;-81
2023/01/02 09:35:15;;;;;;;;;;;8.80;99.90;;;;;;4987261;28;20377;-81
2023/01/02 09:37:40;;;;;;;;;;;8.80;99.90;;;;;;4988905;28;19921;-82
2023/01/02 09:40:06;;;;;;;;;;;9.20;99.90;;;;;;4988248;28;20295;-81
2023/01/02 09:42:32;;;;;;;;;;;8.80;99.90;;;;;;4966417;28;19921;-81
2023/01/02 09:44:59;;;;;;;;;;;8.90;99.90;;;;;;4984876;28;19925;-81
2023/01/02 09:47:28;;;;;;;;;;;8.90;99.90;;;;;;4968518;28;19949;-81
2023/01/02 09:49:53;;;;;;;;;;;8.90;99.90;;;;;;4971639;28;20007;-81
2023/01/02 09:52:22;;;;;;;;;;;8.90;99.90;;;;;;4986201;28;19953;-81
2023/01/02 09:54:47;;;;;;;;;;;9.20;99.90;;;;;;4988225;28;19951;-81
2023/01/02 09:57:13;;;;;;;;;;;8.90;99.90;;;;;;4970804;28;19930;-81
2023/01/02 09:59:43;;;;;;;;;;;8.90;99.90;;;;;;4970626;28;20005;-81
2023/01/02 10:02:09;;;;;;;;;;;8.90;99.90;;;;;;4965192;28;20010;-80
2023/01/02 10:04:45;;;;;;;;;;;8.90;99.90;;;;;;4968012;28;19917;-80
2023/01/02 10:07:18;;;;;;;;;;;9.00;99.90;;;;;;4984287;28;19922;-81
2023/01/02 10:09:59;;;;;;;;;;;9.00;99.90;;;;;;4969519;28;19948;-81
2023/01/02 10:12:24;;;;;;;;;;;9.00;99.90;;;;;;4985611;28;19922;-81
2023/01/02 10:14:55;;;;;;;;;;;9.00;99.90;;;;;;4970987;28;19928;-81
2023/01/02 10:17:22;;;;;;;;;;;9.00;99.90;;;;;;4970729;28;19972;-80
2023/01/02 10:19:50;;;;;;;;;;;9.10;99.90;;;;;;4972279;28;20067;-80
2023/01/02 10:22:21;;;;;;;;;;;9.10;99.90;;;;;;4970990;28;19928;-81
2023/01/02 10:24:53;;;;;;;;;;;9.10;99.90;;;;;;4984198;28;19985;-80
2023/01/02 10:27:21;;;;;;;;;;;9.10;99.90;;;;;;4988820;28;19922;-80
2023/01/02 10:30:13;;;;;;;;;;;9.10;99.90;;;;;;4989465;28;19922;-80
2023/01/02 10:32:42;;;;;;;;;;;9.10;99.90;;;;;;4958379;28;19918;-80
2023/01/02 10:35:10;;;;;;;;;;;9.10;99.90;;;;;;4987551;28;19925;-81
2023/01/02 10:37:36;;;;;;;;;;;9.10;99.90;;;;;;4968857;28;19921;-80
2023/01/02 10:40:01;;;;;;;;;;;9.10;99.90;;;;;;4953518;28;19918;-81
2023/01/02 10:42:29;;;;;;;;;;;9.10;99.90;;;;;;4970151;28;19917;-81
2023/01/02 10:44:55;;;;;;;;;;;9.40;99.90;;;;;;4971998;28;19928;-81
2023/01/02 10:47:32;;;;;;;;;;;9.00;99.90;;;;;;4955097;28;20004;-80
2023/01/02 10:49:57;;;;;;;;;;;9.00;99.90;;;;;;4989618;28;20008;-81
2023/01/02 10:52:33;;;;;;;;;;;9.00;99.90;;;;;;4989077;28;20013;-81
2023/01/02 10:54:59;;;;;;;;;;;9.00;99.90;;;;;;4983297;28;20112;-83
2023/01/02 10:57:37;;;;;;;;;;;9.00;99.90;;;;;;4971608;28;20324;-83
2023/01/02 11:00:04;;;;;;;;;;;9.00;99.90;;;;;;4983548;28;19957;-84
2023/01/02 11:02:39;;;;;;;;;;;9.00;99.90;;;;;;4986673;28;19944;-84
2023/01/02 11:05:07;;;;;;;;;;;9.00;99.90;;;;;;4984800;28;19917;-84
2023/01/02 11:07:35;;;;;;;;;;;9.10;99.90;;;;;;4989129;28;19924;-84
2023/01/02 11:10:00;;;;;;;;;;;9.10;99.90;;;;;;4971279;28;19984;-84
2023/01/02 11:12:26;;;;;;;;;;;9.10;99.90;;;;;;4989350;28;19937;-85
2023/01/02 11:14:51;;;;;;;;;;;9.10;99.90;;;;;;4971576;28;19918;-84
2023/01/02 11:17:19;;;;;;;;;;;9.10;99.90;;;;;;4971646;28;19922;-84
2023/01/02 11:19:49;;;;;;;;;;;9.10;99.90;;;;;;4971204;28;20369;-85
2023/01/02 11:22:16;;;;;;;;;;;9.10;99.90;;;;;;4970815;28;20906;-84
2023/01/02 11:24:57;;;;;;;;;;;9.10;99.90;;;;;;4972198;28;20377;-84
2023/01/02 11:27:27;;;;;;;;;;;9.20;99.90;;;;;;4992637;28;19957;-84
2023/01/02 11:29:53;;;;;;;;;;;9.20;99.90;;;;;;4992352;28;19932;-84
2023/01/02 11:32:22;;;;;;;;;;;9.30;99.90;;;;;;4953298;28;19926;-84
2023/01/02 11:34:56;;;;;;;;;;;9.30;99.90;;;;;;4969265;28;19917;-84
2023/01/02 11:37:21;;;;;;;;;;;9.40;99.90;;;;;;4974655;28;20341;-85
2023/01/02 11:39:57;;;;;;;;;;;9.40;99.90;;;;;;4975083;28;20011;-84
2023/01/02 11:45:17;;;;;;;;;;;9.30;99.90;;;;;;4969966;28;19921;-84
2023/01/02 11:47:42;;;;;;;;;;;9.20;99.90;;;;;;4992252;28;19922;-84
2023/01/02 11:50:34;;;;;;;;;;;9.20;99.90;;;;;;4974565;28;19929;-85
2023/01/02 11:53:07;;;;;;;;;;;9.20;99.90;;;;;;4972379;28;19979;-84
2023/01/02 11:55:39;;;;;;;;;;;9.20;99.90;;;;;;4992125;28;20420;-85
2023/01/02 11:58:07;;;;;;;;;;;9.10;99.90;;;;;;4969999;28;19947;-84
2023/01/02 12:00:35;;;;;;;;;;;9.10;99.90;;;;;;4992307;28;19917;-84
2023/01/02 12:03:04;;;;;;;;;;;9.10;99.90;;;;;;4974871;28;20300;-84
2023/01/02 12:05:41;;;;;;;;;;;9.10;99.90;;;;;;4974462;28;19925;-84
2023/01/02 12:08:14;;;;;;;;;;;9.10;99.90;;;;;;4992169;28;19925;-84
2023/01/02 12:10:54;;;;;;;;;;;9.10;99.90;;;;;;4986757;28;19976;-84
2023/01/02 12:13:22;;;;;;;;;;;9.10;99.90;;;;;;4992110;28;19928;-85
2023/01/02 12:16:14;;;;;;;;;;;9.20;99.90;;;;;;4974619;28;19924;-84
2023/01/02 12:18:49;;;;;;;;;;;9.20;99.90;;;;;;4989543;28;19937;-84
2023/01/02 12:21:20;;;;;;;;;;;9.40;99.90;;;;;;4973916;28;19968;-85
2023/01/02 12:23:45;;;;;;;;;;;9.40;99.90;;;;;;4991380;28;19929;-84
2023/01/02 12:26:12;;;;;;;;;;;9.50;99.90;;;;;;4990611;28;19929;-84
2023/01/02 12:28:56;;;;;;;;;;;9.50;99.90;;;;;;4973385;28;20651;-84
2023/01/02 12:31:22;;;;;;;;;;;9.40;99.90;;;;;;4990156;28;19945;-84
2023/01/02 12:33:53;;;;;;;;;;;9.70;99.90;;;;;;4987687;28;19921;-84
2023/01/02 12:36:26;;;;;;;;;;;9.40;99.90;;;;;;4990444;28;20442;-84
2023/01/02 12:38:58;;;;;;;;;;;9.30;99.90;;;;;;4985659;28;20369;-84
2023/01/02 12:41:30;;;;;;;;;;;9.40;99.90;;;;;;4990332;28;20004;-85
2023/01/02 12:44:17;;;;;;;;;;;9.30;99.90;;;;;;4990074;28;20391;-84
2023/01/02 12:46:49;;;;;;;;;;;9.30;99.90;;;;;;4990899;28;19918;-84
2023/01/02 12:49:15;;;;;;;;;;;9.60;99.90;;;;;;4987028;28;19925;-84
2023/01/02 12:51:49;;;;;;;;;;;9.40;99.90;;;;;;4991323;28;19932;-84
2023/01/02 12:54:27;;;;;;;;;;;9.50;99.90;;;;;;4990547;28;19918;-84
2023/01/02 12:56:59;;;;;;;;;;;9.50;99.90;;;;;;4990882;28;19922;-84
2023/01/02 12:59:43;;;;;;;;;;;9.50;99.90;;;;;;4990826;28;19980;-84
2023/01/02 13:02:12;;;;;;;;;;;9.50;99.90;;;;;;4986115;28;19928;-84
2023/01/02 13:04:41;;;;;;;;;;;9.40;99.90;;;;;;4970526;28;20012;-85
2023/01/02 13:07:12;;;;;;;;;;;9.50;99.90;;;;;;4989758;28;19925;-85
2023/01/02 13:09:39;;;;;;;;;;;9.40;99.90;;;;;;4968304;28;19936;-83
2023/01/02 13:12:15;;;;;;;;;;;9.40;99.90;;;;;;4971501;28;19921;-85
2023/01/02 13:14:45;;;;;;;;;;;9.40;99.90;;;;;;4971374;28;19941;-84
2023/01/02 13:17:23;;;;;;;;;;;9.50;99.90;;;;;;4985778;28;19921;-84
2023/01/02 13:19:53;;;;;;;;;;;9.40;99.90;;;;;;4990019;28;19961;-84
2023/01/02 13:22:19;;;;;;;;;;;9.50;99.90;;;;;;4968003;28;19922;-83
2023/01/02 13:24:46;;;;;;;;;;;9.50;99.90;;;;;;4987642;28;19975;-82
2023/01/02 13:27:11;;;;;;;;;;;9.50;99.90;;;;;;4972726;28;19929;-83
2023/01/02 13:29:41;;;;;;;;;;;9.50;99.90;;;;;;4989942;28;19922;-83
2023/01/02 13:32:08;;;;;;;;;;;9.40;99.90;;;;;;4990079;28;19933;-83
2023/01/02 13:34:36;;;;;;;;;;;9.40;99.90;;;;;;4988404;28;20017;-84
2023/01/02 13:37:11;;;;;;;;;;;9.50;99.90;;;;;;4991334;28;20036;-83
2023/01/02 13:39:40;;;;;;;;;;;9.40;99.90;;;;;;4973636;28;19944;-82
2023/01/02 13:44:56;;;;;;;;;;;9.50;99.90;;;;;;4990397;28;19917;-83
2023/01/02 13:47:46;;;;;;;;;;;9.50;99.90;;;;;;4988393;28;19931;-84
2023/01/02 13:50:12;;;;;;;;;;;9.50;99.90;;;;;;4988645;28;19928;-83
2023/01/02 13:52:38;;;;;;;;;;;9.50;99.90;;;;;;4989614;28;19922;-83
2023/01/02 13:55:27;;;;;;;;;;;9.40;99.90;;;;;;4970556;28;19921;-83
2023/01/02 13:58:19;;;;;;;;;;;9.50;99.90;;;;;;4986814;28;19917;-83
2023/01/02 14:00:45;;;;;;;;;;;9.50;99.90;;;;;;4989098;28;19926;-83
2023/01/02 14:03:20;;;;;;;;;;;9.50;99.90;;;;;;4972430;28;19921;-83
2023/01/02 14:06:02;;;;;;;;;;;9.50;99.90;;;;;;4987449;28;20244;-82
2023/01/02 14:08:28;;;;;;;;;;;9.50;99.90;;;;;;4972003;28;20268;-84
2023/01/02 14:11:32;;;;;;;;;;;9.50;99.90;;;;;;4972422;28;19928;-82
2023/01/02 14:13:58;;;;;;;;;;;9.50;99.90;;;;;;4925885;29;20005;-83
2023/01/02 14:16:24;;;;;;;;;;;9.40;99.90;;;;;;4930105;29;20345;-83
2023/01/02 14:19:15;;;;;;;;;;;9.40;99.90;;;;;;4927846;29;19918;-83
2023/01/02 14:21:49;;;;;;;;;;;9.00;99.90;;;;;;4925257;29;20373;-83
2023/01/02 14:24:23;;;;;;;;;;;9.40;99.90;;;;;;4929239;29;20010;-82
2023/01/02 14:26:54;;;;;;;;;;;9.50;99.90;;;;;;4911264;29;19926;-83
2023/01/02 14:29:19;;;;;;;;;;;9.40;99.90;;;;;;4929277;29;20053;-84
2023/01/02 14:31:45;;;;;;;;;;;10.00;99.90;;;;;;4930103;29;20358;-83
2023/01/02 14:34:12;;;;;;;;;;;9.40;99.90;;;;;;4914315;29;20472;-85
2023/01/02 14:36:42;;;;;;;;;;;9.40;99.90;;;;;;4913983;29;20014;-85
2023/01/02 14:39:16;;;;;;;;;;;9.40;99.90;;;;;;4898667;29;20001;-85